Latest Coastal Weather Observations for South Channel Island

IDV60701

Issued at 1:31 pm EST Monday 1 June 2020 (issued every 10 minutes, with the page automatically refreshed every 10 minutes)

About coastal observations | Map of coastal stations | Coastal observations for VIC | Marine services | Other Formats
Station Details ID: 086344 Name: SOUTH CHANNEL ISLAND Lat: -38.31 Lon: 144.80 Height: 9.0 m
Data from the previous 72 hours. | See also: Recent months at South Channel Island
Date/Time
EST
Wind Sea
Height
m
Swell Vis
km
Cloud Weather Temp
°C
Press
hPa
Rain since
9am
mm
Dir  Spd
kts
Gust
kts
Height
m
Period
s
Dir
01/01:30pm WSW 27 38 - - - - - - - - - -
01/01:28pm WSW 25 38 - - - - - - - - - -
01/01:25pm W 23 33 - - - - - - - - - -
01/01:00pm WNW 25 29 - - - - - - - - - -
01/12:30pm WNW 26 31 - - - - - - - - - -
01/12:00pm W 24 28 - - - - - - - - - -
01/11:30am WNW 22 26 - - - - - - - - - -
01/11:00am WNW 25 29 - - - - - - - - - -
01/10:30am WNW 23 27 - - - - - - - - - -
01/10:00am WNW 23 27 - - - - - - - - - -
01/09:30am WNW 23 28 - - - - - - - - - -
01/09:00am WNW 22 27 - - - - - - - - - -
01/08:30am WNW 22 27 - - - - - - - - - -
01/08:00am WNW 21 25 - - - - - - - - - -
01/07:30am WNW 22 26 - - - - - - - - - -
01/07:00am WNW 21 24 - - - - - - - - - -
01/06:30am NNW 29 38 - - - - - - - - - -
01/06:26am NNW 28 38 - - - - - - - - - -
01/06:21am N 26 38 - - - - - - - - - -
01/06:00am N 27 32 - - - - - - - - - -
01/05:30am N 30 33 - - - - - - - - - -
01/05:00am N 27 31 - - - - - - - - - -
01/04:30am N 29 37 - - - - - - - - - -
01/04:00am N 28 33 - - - - - - - - - -
01/03:30am N 25 31 - - - - - - - - - -
01/03:00am N 26 32 - - - - - - - - - -
01/02:30am N 25 29 - - - - - - - - - -
01/02:00am N 23 28 - - - - - - - - - -
01/01:30am N 24 28 - - - - - - - - - -
01/01:00am N 25 29 - - - - - - - - - -
01/12:30am N 24 29 - - - - - - - - - -
01/12:00am N 23 28 - - - - - - - - - -
 
Date/Time
EST
Wind Sea
Height
m
Swell Vis
km
Cloud Weather Temp
°C
Press
hPa
Rain since
9am
mm
Dir  Spd
kts
Gust
kts
Height
m
Period
s
Dir
31/11:30pm N 21 26 - - - - - - - - - -
31/11:00pm NNW 22 26 - - - - - - - - - -
31/10:30pm NNW 20 25 - - - - - - - - - -
31/10:00pm NNW 21 27 - - - - - - - - - -
31/09:30pm N 22 26 - - - - - - - - - -
31/09:00pm NNW 21 25 - - - - - - - - - -
31/08:30pm NNW 19 22 - - - - - - - - - -
31/08:00pm NNW 22 26 - - - - - - - - - -
31/07:30pm NNW 21 25 - - - - - - - - - -
31/07:00pm NNW 19 21 - - - - - - - - - -
31/06:30pm NNW 14 16 - - - - - - - - - -
31/06:00pm NW 11 13 - - - - - - - - - -
31/05:30pm WNW 11 13 - - - - - - - - - -
31/05:00pm WNW 10 12 - - - - - - - - - -
31/04:30pm W 12 15 - - - - - - - - - -
31/04:00pm W 14 16 - - - - - - - - - -
31/03:30pm W 15 17 - - - - - - - - - -
31/03:00pm WNW 17 20 - - - - - - - - - -
31/02:30pm NW 16 18 - - - - - - - - - -
31/02:00pm NW 16 19 - - - - - - - - - -
31/01:30pm NW 16 18 - - - - - - - - - -
31/01:00pm NW 15 17 - - - - - - - - - -
31/12:30pm NW 15 17 - - - - - - - - - -
31/12:00pm NW 13 15 - - - - - - - - - -
31/11:30am NW 14 18 - - - - - - - - - -
31/11:00am NW 13 16 - - - - - - - - - -
31/10:30am NW 15 17 - - - - - - - - - -
31/10:00am NW 11 15 - - - - - - - - - -
31/09:30am NNW 14 16 - - - - - - - - - -
31/09:00am NNW 13 15 - - - - - - - - - -
31/08:30am NNW 12 15 - - - - - - - - - -
31/08:00am NW 13 16 - - - - - - - - - -
31/07:30am NNW 14 16 - - - - - - - - - -
31/07:00am NNW 16 18 - - - - - - - - - -
31/06:30am NNW 16 18 - - - - - - - - - -
31/06:00am NW 18 20 - - - - - - - - - -
31/05:30am NW 17 20 - - - - - - - - - -
31/05:00am NNW 16 19 - - - - - - - - - -
31/04:30am NW 17 19 - - - - - - - - - -
31/04:00am NNW 19 21 - - - - - - - - - -
31/03:30am NNW 20 24 - - - - - - - - - -
31/03:00am NNW 26 31 - - - - - - - - - -
31/02:30am NNW 30 35 - - - - - - - - - -
31/02:13am NNW 27 38 - - - - - - - - - -
31/02:00am NW 25 30 - - - - - - - - - -
31/01:30am NNW 27 31 - - - - - - - - - -
31/01:13am NNW 28 38 - - - - - - - - - -
31/01:00am NNW 28 33 - - - - - - - - - -
31/12:30am N 22 27 - - - - - - - - - -
31/12:00am N 24 29 - - - - - - - - - -
 
Date/Time
EST
Wind Sea
Height
m
Swell Vis
km
Cloud Weather Temp
°C
Press
hPa
Rain since
9am
mm
Dir  Spd
kts
Gust
kts
Height
m
Period
s
Dir
30/11:30pm N 25 29 - - - - - - - - - -
30/11:00pm N 27 33 - - - - - - - - - -
30/10:30pm N 29 33 - - - - - - - - - -
30/10:00pm N 30 34 - - - - - - - - - -
30/09:30pm N 32 40 - - - - - - - - - -
30/09:00pm N 29 35 - - - - - - - - - -
30/08:30pm N 28 33 - - - - - - - - - -
30/08:00pm N 27 33 - - - - - - - - - -
30/07:30pm N 24 31 - - - - - - - - - -
30/07:00pm NNE 27 32 - - - - - - - - - -
30/06:30pm N 27 32 - - - - - - - - - -
30/06:00pm N 30 36 - - - - - - - - - -
30/05:30pm N 30 36 - - - - - - - - - -
30/05:00pm N 31 37 - - - - - - - - - -
30/04:30pm NNE 29 33 - - - - - - - - - -
30/04:00pm N 32 37 - - - - - - - - - -
30/03:30pm N 28 33 - - - - - - - - - -
30/03:00pm N 27 31 - - - - - - - - - -
30/02:30pm N 30 35 - - - - - - - - - -
30/02:00pm N 27 32 - - - - - - - - - -
30/01:30pm N 29 34 - - - - - - - - - -
30/01:00pm N 30 36 - - - - - - - - - -
30/12:30pm N 31 34 - - - - - - - - - -
30/12:00pm N 29 36 - - - - - - - - - -
30/11:30am N 26 30 - - - - - - - - - -
30/11:00am N 26 30 - - - - - - - - - -
30/10:30am N 27 31 - - - - - - - - - -
30/10:00am N 26 30 - - - - - - - - - -
30/09:30am N 28 31 - - - - - - - - - -
30/09:00am N 29 32 - - - - - - - - - -
30/08:30am N 27 31 - - - - - - - - - -
30/08:00am N 24 28 - - - - - - - - - -
30/07:30am N 25 29 - - - - - - - - - -
30/07:00am N 25 29 - - - - - - - - - -
30/06:30am N 23 28 - - - - - - - - - -
30/06:00am N 23 26 - - - - - - - - - -
30/05:30am N 22 26 - - - - - - - - - -
30/05:00am N 21 24 - - - - - - - - - -
30/04:30am N 21 25 - - - - - - - - - -
30/04:00am N 21 26 - - - - - - - - - -
30/03:30am N 23 27 - - - - - - - - - -
30/03:00am N 23 27 - - - - - - - - - -
30/02:30am N 25 28 - - - - - - - - - -
30/02:00am N 25 29 - - - - - - - - - -
30/01:30am N 22 26 - - - - - - - - - -
30/01:00am N 23 27 - - - - - - - - - -
30/12:30am N 23 26 - - - - - - - - - -
30/12:00am N 20 23 - - - - - - - - - -
 
Date/Time
EST
Wind Sea
Height
m
Swell Vis
km
Cloud Weather Temp
°C
Press
hPa
Rain since
9am
mm
Dir  Spd
kts
Gust
kts
Height
m
Period
s
Dir
29/11:30pm N 20 23 - - - - - - - - - -
29/11:00pm N 21 23 - - - - - - - - - -
29/10:30pm N 21 24 - - - - - - - - - -
29/10:00pm N 23 28 - - - - - - - - - -
29/09:30pm N 22 26 - - - - - - - - - -
29/09:00pm N 20 24 - - - - - - - - - -
29/08:30pm N 21 24 - - - - - - - - - -
29/08:00pm N 20 22 - - - - - - - - - -
29/07:30pm N 20 22 - - - - - - - - - -
29/07:00pm N 19 23 - - - - - - - - - -
29/06:30pm N 18 20 - - - - - - - - - -
29/06:00pm N 15 17 - - - - - - - - - -
29/05:30pm N 18 20 - - - - - - - - - -
29/05:00pm N 14 18 - - - - - - - - - -
29/04:30pm N 16 20 - - - - - - - - - -
29/04:00pm N 14 17 - - - - - - - - - -
29/03:30pm N 10 13 - - - - - - - - - -
29/03:00pm N 8 9 - - - - - - - - - -
29/02:30pm N 11 13 - - - - - - - - - -
29/02:00pm N 15 18 - - - - - - - - - -

Other formats

Comma delimited format used in spreadsheet applications
http://www.bom.gov.au/fwo/IDV60701/IDV60701.94853.axf

JavaScript Object Notation format (JSON) in row-major order
http://www.bom.gov.au/fwo/IDV60701/IDV60701.94853.json

Data quality

Most of these data are generated automatically and are frequently updated. Quality checks on data are not normally performed. It is possible for incorrect values to appear. Refer to information at About Latest Weather Observations and please check the disclaimer before using these data.